Time;durP1;ratioP1;P1;durP2;ratioP2;P2;SDS_P1;SDS_P2;PMS_P1;PMS_P2;Temp;Humidity;BMP_temperature;BMP_pressure;BME280_temperature;BME280_humidity;BME280_pressure;Samples;Min_cycle;Max_cycle;Signal;HPM_P1;HPM_P2
2022/01/15 00:00:36;;;;;;;8.63;6.43;;;;;;;;;;5092755;28;20044;-83
2022/01/15 00:03:02;;;;;;;9.88;7.18;;;;;;;;;;5111511;28;20463;-81
2022/01/15 00:05:30;;;;;;;9.65;6.72;;;;;;;;;;5093742;28;20078;-86
2022/01/15 00:07:57;;;;;;;10.85;6.78;;;;;;;;;;5093770;28;20016;-88
2022/01/15 00:10:26;;;;;;;8.20;6.43;;;;;;;;;;5093102;28;20034;-86
2022/01/15 00:12:53;;;;;;;9.00;6.40;;;;;;;;;;5093959;28;20111;-88
2022/01/15 00:15:25;;;;;;;7.95;6.60;;;;;;;;;;5111772;28;20483;-87
2022/01/15 00:18:00;;;;;;;9.52;7.13;;;;;;;;;;5112163;28;20429;-86
2022/01/15 00:20:27;;;;;;;8.52;6.60;;;;;;;;;;5093455;28;20035;-85
2022/01/15 00:22:54;;;;;;;9.65;6.70;;;;;;;;;;5093987;28;20028;-87
2022/01/15 00:25:21;;;;;;;10.20;7.30;;;;;;;;;;5093656;28;20088;-86
2022/01/15 00:27:47;;;;;;;11.45;7.40;;;;;;;;;;5111647;28;20020;-87
2022/01/15 00:30:14;;;;;;;8.88;6.68;;;;;;;;;;5093246;28;20460;-87
2022/01/15 00:32:40;;;;;;;9.38;6.97;;;;;;;;;;5112132;28;20053;-87
2022/01/15 00:35:07;;;;;;;8.73;6.22;;;;;;;;;;5093901;28;20027;-85
2022/01/15 00:37:33;;;;;;;8.43;6.45;;;;;;;;;;5111564;28;20059;-87
2022/01/15 00:40:00;;;;;;;9.40;6.72;;;;;;;;;;5093383;28;20028;-86
2022/01/15 00:42:27;;;;;;;10.18;7.78;;;;;;;;;;5111743;28;20472;-86
2022/01/15 00:44:55;;;;;;;8.80;6.97;;;;;;;;;;5111512;28;20056;-86
2022/01/15 00:47:21;;;;;;;9.02;7.18;;;;;;;;;;5111496;28;20141;-87
2022/01/15 00:49:47;;;;;;;9.20;7.18;;;;;;;;;;5111585;28;20107;-86
2022/01/15 00:52:13;;;;;;;10.02;7.05;;;;;;;;;;5093161;28;20106;-85
2022/01/15 00:54:39;;;;;;;10.25;6.97;;;;;;;;;;5111847;28;20054;-86
2022/01/15 00:57:05;;;;;;;9.10;7.82;;;;;;;;;;5111056;28;20028;-86
2022/01/15 00:59:31;;;;;;;8.65;6.68;;;;;;;;;;5111149;28;20101;-86
2022/01/15 01:01:57;;;;;;;7.88;6.72;;;;;;;;;;5111584;28;20023;-86
2022/01/15 01:04:23;;;;;;;8.98;7.00;;;;;;;;;;5111474;28;20387;-87
2022/01/15 01:06:49;;;;;;;8.48;6.40;;;;;;;;;;5111433;28;20081;-87
2022/01/15 01:09:15;;;;;;;9.48;6.93;;;;;;;;;;5111404;28;20031;-88
2022/01/15 01:11:51;;;;;;;7.47;6.20;;;;;;;;;;5111445;28;20097;-83
2022/01/15 01:20:06;;;;;;;9.20;6.72;;;;;;;;;;5111018;28;20077;-86
2022/01/15 01:25:13;;;;;;;9.43;7.05;;;;;;;;;;5110911;28;20035;-87
2022/01/15 01:27:50;;;;;;;8.10;6.78;;;;;;;;;;5110787;28;20020;-86
2022/01/15 01:30:27;;;;;;;10.15;7.15;;;;;;;;;;5111049;28;20039;-85
2022/01/15 01:33:01;;;;;;;9.90;6.90;;;;;;;;;;5113480;28;20042;-88
2022/01/15 01:35:41;;;;;;;9.10;7.22;;;;;;;;;;5115124;28;20153;-88
2022/01/15 01:38:17;;;;;;;9.52;6.82;;;;;;;;;;5115884;28;20016;-89
2022/01/15 01:40:49;;;;;;;8.18;6.40;;;;;;;;;;5115285;28;20104;-87
2022/01/15 01:45:46;;;;;;;9.55;6.90;;;;;;;;;;5115008;28;20032;-82
2022/01/15 01:48:12;;;;;;;8.60;7.20;;;;;;;;;;5114675;28;20022;-86
2022/01/15 01:50:38;;;;;;;9.25;7.78;;;;;;;;;;5097184;28;20570;-85
2022/01/15 01:53:05;;;;;;;9.25;7.68;;;;;;;;;;5114861;28;20059;-85
2022/01/15 01:55:32;;;;;;;9.13;6.72;;;;;;;;;;5096083;28;20050;-86
2022/01/15 01:57:58;;;;;;;9.93;7.72;;;;;;;;;;5114701;28;20054;-82
2022/01/15 02:00:26;;;;;;;8.40;6.50;;;;;;;;;;5114126;28;20067;-87
2022/01/15 02:02:52;;;;;;;9.30;7.07;;;;;;;;;;5114650;28;20016;-86
2022/01/15 02:05:19;;;;;;;11.40;7.50;;;;;;;;;;5114457;28;20034;-86
2022/01/15 02:07:45;;;;;;;8.57;6.63;;;;;;;;;;5114522;28;20558;-87
2022/01/15 02:10:13;;;;;;;9.13;6.97;;;;;;;;;;5096163;28;20391;-83
2022/01/15 02:12:39;;;;;;;7.97;6.20;;;;;;;;;;5096374;28;20020;-86
2022/01/15 02:15:06;;;;;;;10.02;7.15;;;;;;;;;;5114270;28;20490;-86
2022/01/15 02:17:33;;;;;;;11.10;7.65;;;;;;;;;;5114135;28;20463;-86
2022/01/15 02:25:17;;;;;;;9.07;7.15;;;;;;;;;;5113819;28;20050;-87
2022/01/15 02:27:43;;;;;;;10.82;7.32;;;;;;;;;;5114413;28;20543;-83
2022/01/15 02:30:09;;;;;;;10.88;7.95;;;;;;;;;;5114600;28;20399;-84
2022/01/15 02:32:36;;;;;;;10.43;7.47;;;;;;;;;;5095764;28;20096;-87
2022/01/15 02:35:02;;;;;;;10.43;8.52;;;;;;;;;;5095720;28;20027;-86
2022/01/15 02:37:30;;;;;;;9.73;7.43;;;;;;;;;;5096030;28;20055;-87
2022/01/15 02:39:56;;;;;;;12.25;8.57;;;;;;;;;;5095459;28;20035;-88
2022/01/15 02:42:29;;;;;;;10.25;7.95;;;;;;;;;;5113756;28;20023;-87
2022/01/15 02:45:00;;;;;;;9.88;7.20;;;;;;;;;;5112717;28;20484;-89
2022/01/15 02:50:11;;;;;;;10.93;8.68;;;;;;;;;;5114234;28;20038;-83
2022/01/15 02:52:37;;;;;;;10.38;7.63;;;;;;;;;;5095849;28;20031;-88
2022/01/15 02:55:03;;;;;;;11.27;8.05;;;;;;;;;;5113645;28;20028;-89
2022/01/15 02:57:29;;;;;;;11.25;7.90;;;;;;;;;;5113074;28;20016;-86
2022/01/15 02:59:55;;;;;;;11.77;8.02;;;;;;;;;;5113468;28;20058;-86
2022/01/15 03:02:23;;;;;;;10.13;7.60;;;;;;;;;;5113233;28;20019;-85
2022/01/15 03:04:49;;;;;;;11.38;7.35;;;;;;;;;;5095018;28;20027;-86
2022/01/15 03:07:15;;;;;;;9.75;7.72;;;;;;;;;;5112961;28;20031;-87
2022/01/15 03:09:41;;;;;;;11.32;7.93;;;;;;;;;;5113527;28;20024;-88
2022/01/15 03:12:07;;;;;;;11.68;8.15;;;;;;;;;;5095397;28;20467;-86
2022/01/15 03:14:33;;;;;;;11.45;8.02;;;;;;;;;;5094894;28;20024;-88
2022/01/15 03:16:59;;;;;;;14.50;9.20;;;;;;;;;;5113250;28;20479;-87
2022/01/15 03:19:26;;;;;;;10.90;8.07;;;;;;;;;;5112724;28;20039;-86
2022/01/15 03:21:52;;;;;;;10.93;8.15;;;;;;;;;;5113026;28;20027;-87
2022/01/15 03:24:18;;;;;;;13.40;8.85;;;;;;;;;;5094553;28;20023;-86
2022/01/15 03:26:44;;;;;;;11.73;8.68;;;;;;;;;;5112371;28;20433;-85
2022/01/15 03:29:09;;;;;;;11.45;8.23;;;;;;;;;;5095036;28;20024;-86
2022/01/15 03:31:35;;;;;;;12.70;8.57;;;;;;;;;;5094966;28;20085;-85
2022/01/15 03:34:01;;;;;;;11.95;8.77;;;;;;;;;;5094293;28;20023;-83
2022/01/15 03:36:27;;;;;;;10.25;7.95;;;;;;;;;;5112393;28;20106;-87
2022/01/15 03:38:53;;;;;;;10.98;7.97;;;;;;;;;;5094378;28;20479;-88
2022/01/15 03:41:20;;;;;;;12.23;8.82;;;;;;;;;;5094323;28;20050;-88
2022/01/15 03:43:46;;;;;;;11.15;7.57;;;;;;;;;;5094059;28;20054;-88
2022/01/15 03:46:12;;;;;;;12.77;8.80;;;;;;;;;;5112614;28;20027;-86
2022/01/15 03:48:38;;;;;;;11.93;8.82;;;;;;;;;;5112682;28;20376;-87
2022/01/15 03:51:04;;;;;;;12.27;8.93;;;;;;;;;;5094091;28;20027;-86
2022/01/15 03:53:30;;;;;;;12.52;8.68;;;;;;;;;;5112143;28;20035;-84
2022/01/15 03:55:56;;;;;;;13.50;10.30;;;;;;;;;;5111612;28;20103;-85
2022/01/15 03:58:22;;;;;;;10.85;8.52;;;;;;;;;;5093761;28;20028;-85
2022/01/15 04:00:49;;;;;;;12.18;9.07;;;;;;;;;;5112212;28;20069;-84
2022/01/15 04:03:15;;;;;;;12.25;8.73;;;;;;;;;;5111613;28;20037;-86
2022/01/15 04:05:41;;;;;;;12.00;9.00;;;;;;;;;;5112183;28;20088;-83
2022/01/15 04:08:07;;;;;;;10.93;8.38;;;;;;;;;;5094117;28;20055;-86
2022/01/15 04:10:34;;;;;;;11.57;8.98;;;;;;;;;;5093700;28;20022;-87
2022/01/15 04:13:00;;;;;;;13.65;9.00;;;;;;;;;;5111998;28;20027;-86
2022/01/15 04:15:26;;;;;;;11.40;8.80;;;;;;;;;;5112099;28;20023;-87
2022/01/15 04:17:52;;;;;;;12.27;8.93;;;;;;;;;;5112533;28;20031;-86
2022/01/15 04:20:21;;;;;;;13.25;9.43;;;;;;;;;;5093888;28;20403;-89
2022/01/15 04:22:48;;;;;;;12.65;9.75;;;;;;;;;;5093731;28;20080;-88
2022/01/15 04:25:14;;;;;;;12.35;9.15;;;;;;;;;;5110783;28;20153;-86
2022/01/15 04:27:41;;;;;;;12.13;8.63;;;;;;;;;;5111490;28;20039;-84
2022/01/15 04:30:08;;;;;;;11.52;8.73;;;;;;;;;;5111945;28;20016;-82
2022/01/15 04:32:34;;;;;;;13.63;8.88;;;;;;;;;;5111260;28;20511;-84
2022/01/15 04:35:00;;;;;;;12.70;8.90;;;;;;;;;;5111671;28;20031;-84
2022/01/15 04:37:36;;;;;;;12.75;9.30;;;;;;;;;;5111369;28;20024;-86
2022/01/15 04:40:03;;;;;;;12.70;8.88;;;;;;;;;;5111686;28;20035;-87
2022/01/15 04:42:29;;;;;;;12.30;8.32;;;;;;;;;;5111604;28;20499;-86
2022/01/15 04:44:56;;;;;;;11.60;8.20;;;;;;;;;;5111469;28;20027;-86
2022/01/15 04:47:22;;;;;;;11.60;8.27;;;;;;;;;;5111833;28;20413;-87
2022/01/15 04:49:48;;;;;;;12.40;8.95;;;;;;;;;;5093577;28;20053;-87
2022/01/15 04:52:14;;;;;;;11.98;8.93;;;;;;;;;;5093605;28;20024;-86
2022/01/15 04:54:40;;;;;;;12.02;8.30;;;;;;;;;;5093213;28;20541;-85
2022/01/15 04:57:06;;;;;;;10.88;8.40;;;;;;;;;;5111421;28;20031;-83
2022/01/15 04:59:32;;;;;;;12.60;8.85;;;;;;;;;;5093074;28;20237;-86
2022/01/15 05:01:58;;;;;;;12.75;8.45;;;;;;;;;;5111732;28;20028;-87
2022/01/15 05:04:24;;;;;;;12.18;8.85;;;;;;;;;;5111122;28;20099;-86
2022/01/15 05:06:50;;;;;;;10.70;8.32;;;;;;;;;;5093438;28;20031;-86
2022/01/15 05:09:16;;;;;;;11.80;8.90;;;;;;;;;;5115495;28;20023;-86
2022/01/15 05:12:10;;;;;;;12.00;9.02;;;;;;;;;;5115261;28;20023;-83
2022/01/15 05:14:28;;;;;;;;;;;;;;;;;;5114963;28;20076;-84
2022/01/15 05:16:54;;;;;;;10.45;7.85;;;;;;;;;;5097078;28;19998;-84
2022/01/15 05:19:20;;;;;;;10.27;7.82;;;;;;;;;;5114933;28;20035;-84
2022/01/15 05:21:47;;;;;;;11.75;8.40;;;;;;;;;;5115078;28;20027;-84
2022/01/15 05:24:13;;;;;;;12.98;8.35;;;;;;;;;;5115163;28;20023;-83
2022/01/15 05:26:39;;;;;;;12.57;8.07;;;;;;;;;;5114534;28;20536;-89
2022/01/15 05:29:05;;;;;;;11.40;7.90;;;;;;;;;;5115395;28;20027;-85
2022/01/15 05:31:31;;;;;;;8.90;7.35;;;;;;;;;;5115143;28;20022;-85
2022/01/15 05:33:57;;;;;;;9.93;8.10;;;;;;;;;;5115072;28;20066;-87
2022/01/15 05:36:23;;;;;;;10.73;8.23;;;;;;;;;;5114919;28;20019;-88
2022/01/15 05:38:49;;;;;;;11.45;8.25;;;;;;;;;;5115081;28;20031;-87
2022/01/15 05:41:15;;;;;;;9.75;8.18;;;;;;;;;;5115194;28;20054;-87
2022/01/15 05:43:41;;;;;;;10.45;7.72;;;;;;;;;;5114866;28;20035;-86
2022/01/15 05:46:07;;;;;;;9.82;7.40;;;;;;;;;;5114933;28;20019;-86
2022/01/15 05:48:33;;;;;;;11.75;8.23;;;;;;;;;;5114374;28;20148;-86
2022/01/15 05:50:59;;;;;;;10.23;7.85;;;;;;;;;;5114639;28;20441;-86
2022/01/15 05:53:25;;;;;;;9.70;8.13;;;;;;;;;;5114373;28;20011;-85
2022/01/15 05:55:51;;;;;;;9.93;7.93;;;;;;;;;;5114318;28;20075;-87
2022/01/15 05:58:17;;;;;;;10.70;7.63;;;;;;;;;;5095818;28;20100;-87
2022/01/15 06:00:43;;;;;;;10.02;7.93;;;;;;;;;;5095449;28;20042;-83
2022/01/15 06:03:09;;;;;;;10.18;7.63;;;;;;;;;;5095909;28;20020;-86
2022/01/15 06:05:35;;;;;;;9.82;7.53;;;;;;;;;;5114358;28;20030;-87
2022/01/15 06:08:02;;;;;;;10.35;7.65;;;;;;;;;;5114164;28;20061;-85
2022/01/15 06:10:28;;;;;;;11.10;7.28;;;;;;;;;;5095812;28;20038;-85
2022/01/15 06:12:54;;;;;;;10.52;7.20;;;;;;;;;;5114407;28;20024;-87
2022/01/15 06:15:20;;;;;;;9.38;7.35;;;;;;;;;;5114281;28;20463;-84
2022/01/15 06:17:46;;;;;;;10.60;7.20;;;;;;;;;;5096208;28;20023;-86
2022/01/15 06:20:13;;;;;;;9.38;7.07;;;;;;;;;;5096124;28;20054;-88
2022/01/15 06:22:39;;;;;;;10.80;7.57;;;;;;;;;;5095924;28;20146;-86
2022/01/15 06:25:06;;;;;;;8.48;6.50;;;;;;;;;;5095618;28;20531;-86
2022/01/15 06:27:32;;;;;;;8.43;6.55;;;;;;;;;;5113950;28;20058;-87
2022/01/15 06:29:59;;;;;;;9.30;6.97;;;;;;;;;;5113967;28;20093;-83
2022/01/15 06:32:25;;;;;;;8.65;6.28;;;;;;;;;;5095201;28;20045;-86
2022/01/15 06:34:52;;;;;;;7.68;6.13;;;;;;;;;;5095417;28;20398;-86
2022/01/15 06:37:18;;;;;;;10.02;7.35;;;;;;;;;;5113132;28;20023;-84
2022/01/15 06:39:45;;;;;;;9.27;6.18;;;;;;;;;;5112720;28;20042;-84
2022/01/15 06:42:11;;;;;;;9.65;6.78;;;;;;;;;;5095072;28;20028;-86
2022/01/15 06:44:36;;;;;;;8.55;6.97;;;;;;;;;;5113280;28;20038;-83
2022/01/15 06:47:03;;;;;;;9.48;6.80;;;;;;;;;;5095283;28;20015;-84
2022/01/15 06:49:29;;;;;;;9.98;6.93;;;;;;;;;;5113263;28;20020;-82
2022/01/15 06:51:55;;;;;;;8.05;6.00;;;;;;;;;;5113322;28;20483;-84
2022/01/15 06:54:21;;;;;;;8.98;6.28;;;;;;;;;;5094662;28;20062;-84
2022/01/15 06:56:47;;;;;;;8.27;6.65;;;;;;;;;;5113491;28;20020;-82
2022/01/15 06:59:13;;;;;;;8.70;6.75;;;;;;;;;;5095044;28;20422;-86
2022/01/15 07:01:39;;;;;;;8.50;5.82;;;;;;;;;;5094836;28;20414;-84
2022/01/15 07:04:05;;;;;;;8.13;5.85;;;;;;;;;;5112597;28;20031;-84
2022/01/15 07:06:31;;;;;;;7.97;6.28;;;;;;;;;;5112098;28;20039;-83
2022/01/15 07:08:57;;;;;;;8.10;6.25;;;;;;;;;;5113035;28;20031;-82
2022/01/15 07:11:23;;;;;;;7.78;5.60;;;;;;;;;;5112754;28;20386;-82
2022/01/15 07:13:49;;;;;;;7.95;5.80;;;;;;;;;;5113002;28;20474;-82
2022/01/15 07:16:15;;;;;;;8.05;6.22;;;;;;;;;;5112930;28;20024;-80
2022/01/15 07:18:41;;;;;;;8.05;5.97;;;;;;;;;;5093923;28;20039;-85
2022/01/15 07:21:07;;;;;;;8.13;5.80;;;;;;;;;;5112344;28;20030;-82
2022/01/15 07:23:33;;;;;;;8.10;6.00;;;;;;;;;;5112121;28;20031;-81
2022/01/15 07:25:59;;;;;;;6.97;5.85;;;;;;;;;;5112465;28;20020;-80
2022/01/15 07:28:27;;;;;;;6.70;5.38;;;;;;;;;;5111719;28;20407;-82
2022/01/15 07:30:53;;;;;;;7.50;5.90;;;;;;;;;;5111495;28;20028;-80
2022/01/15 07:33:19;;;;;;;8.25;6.32;;;;;;;;;;5112216;28;20425;-80
2022/01/15 07:35:46;;;;;;;7.00;5.45;;;;;;;;;;5112226;28;20058;-80
2022/01/15 07:38:13;;;;;;;7.82;6.20;;;;;;;;;;5094391;28;20031;-81
2022/01/15 07:40:39;;;;;;;7.78;5.30;;;;;;;;;;5112021;28;20479;-80
2022/01/15 07:43:05;;;;;;;7.90;6.13;;;;;;;;;;5112410;28;20034;-82
2022/01/15 07:45:31;;;;;;;7.75;6.32;;;;;;;;;;5110664;28;20459;-81
2022/01/15 07:47:57;;;;;;;10.63;6.18;;;;;;;;;;5110462;28;20023;-82
2022/01/15 07:50:26;;;;;;;7.57;6.10;;;;;;;;;;5110244;28;20028;-83
2022/01/15 07:52:52;;;;;;;6.25;5.15;;;;;;;;;;5110986;28;20042;-79
2022/01/15 07:55:19;;;;;;;7.47;5.75;;;;;;;;;;5111092;28;20031;-81
2022/01/15 07:57:45;;;;;;;6.95;5.50;;;;;;;;;;5112085;28;20517;-76
2022/01/15 08:00:14;;;;;;;6.88;5.28;;;;;;;;;;5110668;28;20399;-79
2022/01/15 08:02:41;;;;;;;6.35;5.03;;;;;;;;;;5110468;28;20027;-78
2022/01/15 08:05:08;;;;;;;6.53;5.00;;;;;;;;;;5112171;28;20027;-76
2022/01/15 08:07:34;;;;;;;9.25;5.82;;;;;;;;;;5111849;28;20068;-81
2022/01/15 08:10:01;;;;;;;12.23;7.28;;;;;;;;;;5111734;28;20059;-80
2022/01/15 08:12:27;;;;;;;9.45;7.35;;;;;;;;;;5111732;28;20107;-77
2022/01/15 08:14:55;;;;;;;8.73;6.63;;;;;;;;;;5111796;28;20141;-78
2022/01/15 08:17:21;;;;;;;9.02;7.03;;;;;;;;;;5109731;28;20069;-80
2022/01/15 08:19:47;;;;;;;9.07;6.65;;;;;;;;;;5109910;28;20042;-76
2022/01/15 08:22:13;;;;;;;7.55;6.25;;;;;;;;;;5110097;28;20023;-77
2022/01/15 08:24:39;;;;;;;9.60;6.63;;;;;;;;;;5109726;28;20027;-77
2022/01/15 08:27:05;;;;;;;7.53;5.85;;;;;;;;;;5110001;28;20091;-76
2022/01/15 08:29:32;;;;;;;7.57;5.82;;;;;;;;;;5109754;28;20391;-76
2022/01/15 08:31:58;;;;;;;7.00;5.45;;;;;;;;;;5110158;28;20019;-77
2022/01/15 08:34:24;;;;;;;7.72;6.07;;;;;;;;;;5109816;28;20026;-76
2022/01/15 08:36:50;;;;;;;7.25;5.35;;;;;;;;;;5110312;28;20086;-77
2022/01/15 08:39:16;;;;;;;8.70;6.07;;;;;;;;;;5109748;28;20031;-82
2022/01/15 08:41:48;;;;;;;7.63;5.65;;;;;;;;;;5110125;28;20589;-77
2022/01/15 08:44:15;;;;;;;7.85;5.30;;;;;;;;;;5112537;28;20487;-78
2022/01/15 08:46:41;;;;;;;8.98;5.40;;;;;;;;;;5114648;28;20514;-84
2022/01/15 08:49:07;;;;;;;7.22;5.00;;;;;;;;;;5096642;28;20023;-79
2022/01/15 08:51:33;;;;;;;6.85;5.68;;;;;;;;;;5115643;28;20053;-85
2022/01/15 08:53:59;;;;;;;7.65;5.70;;;;;;;;;;5116023;28;20020;-82
2022/01/15 08:56:25;;;;;;;19.38;6.55;;;;;;;;;;5095813;28;20031;-82
2022/01/15 08:58:51;;;;;;;9.90;6.65;;;;;;;;;;5113850;28;20118;-83
2022/01/15 09:01:17;;;;;;;8.27;5.88;;;;;;;;;;5115457;28;20105;-79
2022/01/15 09:03:43;;;;;;;7.30;5.28;;;;;;;;;;5115585;28;20015;-85
2022/01/15 09:06:10;;;;;;;10.77;5.55;;;;;;;;;;5114371;28;20031;-80
2022/01/15 09:08:37;;;;;;;7.18;5.43;;;;;;;;;;5115262;28;20031;-80
2022/01/15 09:11:03;;;;;;;10.73;5.28;;;;;;;;;;5115315;28;20035;-81
2022/01/15 09:13:32;;;;;;;9.05;5.03;;;;;;;;;;5114910;28;20094;-83
2022/01/15 09:15:58;;;;;;;6.35;4.90;;;;;;;;;;5113792;28;20391;-81
2022/01/15 09:18:24;;;;;;;7.47;5.05;;;;;;;;;;5113209;28;20020;-78
2022/01/15 09:20:50;;;;;;;6.40;4.80;;;;;;;;;;5113292;28;20570;-77
2022/01/15 09:23:17;;;;;;;5.47;4.57;;;;;;;;;;5114674;28;20031;-79
2022/01/15 09:25:43;;;;;;;7.72;5.07;;;;;;;;;;5114779;28;20059;-79
2022/01/15 09:30:55;;;;;;;10.75;5.68;;;;;;;;;;5115120;28;20034;-80
2022/01/15 09:33:21;;;;;;;5.53;4.85;;;;;;;;;;5114696;28;20028;-80
2022/01/15 09:35:47;;;;;;;7.95;5.38;;;;;;;;;;5096074;28;20022;-75
2022/01/15 09:38:17;;;;;;;9.38;5.00;;;;;;;;;;5114326;28;20094;-75
2022/01/15 09:40:43;;;;;;;6.95;4.43;;;;;;;;;;5114552;28;20036;-79
2022/01/15 09:43:10;;;;;;;7.03;5.32;;;;;;;;;;5114528;28;20023;-80
2022/01/15 09:45:36;;;;;;;7.30;5.15;;;;;;;;;;5114599;28;20825;-83
2022/01/15 09:48:04;;;;;;;11.32;5.60;;;;;;;;;;5114003;28;20453;-82
2022/01/15 09:50:31;;;;;;;8.75;5.78;;;;;;;;;;5114523;28;20455;-81
2022/01/15 09:52:58;;;;;;;7.53;5.30;;;;;;;;;;5114102;28;20102;-81
2022/01/15 09:55:25;;;;;;;14.07;5.88;;;17.30;54.80;;;;;;5096100;28;20039;-83
2022/01/15 09:57:51;;;;;;;10.50;5.32;;;18.90;55.50;;;;;;5114522;28;20055;-81
2022/01/15 10:00:20;;;;;;;7.47;5.97;;;19.00;55.30;;;;;;5114446;28;20035;-80
2022/01/15 10:02:47;;;;;;;9.32;6.07;;;18.90;54.80;;;;;;5114708;28;20090;-78
2022/01/15 10:05:14;;;;;;;8.40;5.93;;;19.00;55.00;;;;;;5096267;28;20027;-79
2022/01/15 10:07:58;;;;;;;11.05;6.70;;;19.00;55.10;;;;;;5114045;28;20024;-85
2022/01/15 10:10:26;;;;;;;7.93;6.30;;;19.10;55.40;;;;;;5114131;28;20157;-88
2022/01/15 10:12:52;;;;;;;9.25;6.07;;;19.10;55.30;;;;;;5114234;28;20023;-85
2022/01/15 10:15:18;;;;;;;8.00;5.60;;;19.20;55.30;;;;;;5114213;28;20384;-81
2022/01/15 10:17:44;;;;;;;9.75;6.80;;;19.20;56.20;;;;;;5113454;28;20556;-87
2022/01/15 10:20:16;;;;;;;9.05;5.88;;;19.30;56.30;;;;;;5094422;28;20051;-82
2022/01/15 10:22:48;;;;;;;7.55;6.05;;;19.40;55.90;;;;;;5111943;28;20100;-84
2022/01/15 10:25:21;;;;;;;10.90;6.38;;;19.40;55.90;;;;;;5113318;28;20028;-85
2022/01/15 10:27:57;;;;;;;10.50;5.85;;;19.40;55.70;;;;;;5114100;28;20074;-83
2022/01/15 10:30:27;;;;;;;9.25;6.50;;;19.50;55.30;;;;;;5094613;28;20072;-81
2022/01/15 10:33:02;;;;;;;9.45;6.18;;;19.60;55.60;;;;;;5113846;28;20047;-84
2022/01/15 10:35:33;;;;;;;9.95;6.10;;;19.70;55.60;;;;;;5112819;28;20035;-88
2022/01/15 10:38:07;;;;;;;12.70;6.90;;;19.70;55.70;;;;;;5093359;28;20024;-81
2022/01/15 10:40:42;;;;;;;11.52;6.93;;;19.70;55.80;;;;;;5092888;28;20509;-81
2022/01/15 10:43:08;;;;;;;;;;;19.80;56.00;;;;;;5093376;28;20039;-81
2022/01/15 10:45:35;;;;;;;;;;;;;;;;;;5093477;28;19915;-81
2022/01/15 10:48:03;;;;;;;12.20;7.15;;;;;;;;;;5093224;28;19998;-80
2022/01/15 10:50:31;;;;;;;13.98;7.18;;;;;;;;;;5093053;28;20082;-79
2022/01/15 10:52:58;;;;;;;13.82;7.72;;;;;;;;;;5074897;28;20024;-85
2022/01/15 10:55:25;;;;;;;12.98;6.88;;;;;;;;;;5093483;28;20070;-92
2022/01/15 10:57:59;;;;;;;13.32;7.82;;;;;;;;;;5093363;28;20024;-90
2022/01/15 11:00:25;;;;;;;13.32;7.68;;;;;;;;;;5092628;28;20028;-87
2022/01/15 11:02:52;;;;;;;14.07;8.25;;;;;;;;;;5092735;28;20037;-80
2022/01/15 11:05:24;;;;;;;11.82;7.38;;;20.00;56.40;;;;;;5099774;28;20085;-77
2022/01/15 11:07:51;;;;;;;13.75;7.88;;;;;;;;;;5112867;28;20407;-80
2022/01/15 11:10:18;;;;;;;15.20;7.57;;;;;;;;;;5112888;28;20106;-80
2022/01/15 11:12:44;;;;;;;10.90;7.35;;;;;;;;;;5112471;28;20024;-79
2022/01/15 11:15:10;;;;;;;15.05;7.32;;;;;;;;;;5113021;28;20038;-88
2022/01/15 11:17:37;;;;;;;11.98;7.22;;;;;;;;;;5112670;28;20027;-82
2022/01/15 11:20:05;;;;;;;14.43;7.53;;;;;;;;;;5112843;28;20093;-83
2022/01/15 11:22:32;;;;;;;14.48;8.57;;;;;;;;;;5094214;28;20380;-81
2022/01/15 11:24:58;;;;;;;11.10;7.60;;;;;;;;;;5112622;28;20023;-80
2022/01/15 11:27:28;;;;;;;13.55;8.23;;;;;;;;;;5112595;28;20352;-81
2022/01/15 11:29:57;;;;;;;8.85;7.28;;;;;;;;;;5093030;28;20509;-81
2022/01/15 11:32:24;;;;;;;16.15;9.23;;;;;;;;;;5111789;28;20024;-82
2022/01/15 11:35:04;;;;;;;20.90;10.95;;;;;;;;;;5110703;28;20046;-81
2022/01/15 11:37:38;;;;;;;16.75;10.55;;;;;;;;;;5109024;28;20027;-81
2022/01/15 11:40:23;;;;;;;13.85;10.30;;;;;;;;;;5092437;28;20027;-82
2022/01/15 11:42:49;;;;;;;14.85;9.85;;;;;;;;;;5089809;28;20103;-80
2022/01/15 11:45:34;;;;;;;15.98;9.95;;;;;;;;;;5110837;28;20176;-79
2022/01/15 11:48:19;;;;;;;15.27;9.73;;;;;;;;;;5109552;28;20015;-80
2022/01/15 11:50:45;;;;;;;13.45;8.65;;;;;;;;;;5110414;28;20050;-81
2022/01/15 11:53:31;;;;;;;16.35;9.73;;;;;;;;;;5111740;28;20023;-81
2022/01/15 11:56:14;;;;;;;15.18;9.77;;;;;;;;;;5092869;28;20020;-80
2022/01/15 11:58:40;;;;;;;14.07;9.93;;;;;;;;;;5108152;28;20510;-80
2022/01/15 12:01:06;;;;;;;14.88;9.05;;;;;;;;;;5111513;28;20027;-85
2022/01/15 12:03:39;;;;;;;16.02;10.20;;;;;;;;;;5110938;28;20031;-81
2022/01/15 12:06:05;;;;;;;17.02;10.50;;;;;;;;;;5111428;28;20066;-82
2022/01/15 12:08:32;;;;;;;14.68;10.13;;;;;;;;;;5110645;28;20020;-82
2022/01/15 12:10:59;;;;;;;16.23;9.57;;;;;;;;;;5110793;28;20054;-82
2022/01/15 12:13:29;;;;;;;13.10;10.05;;;;;;;;;;5109980;28;20539;-82
2022/01/15 12:16:14;;;;;;;11.40;9.35;;;;;;;;;;5111045;28;20020;-82
2022/01/15 12:18:47;;;;;;;14.77;10.52;;;;;;;;;;5093481;28;20390;-82
2022/01/15 12:21:33;;;;;;;13.45;9.50;;;;;;;;;;5093610;28;20050;-82
2022/01/15 12:23:59;;;;;;;;;;;;;;;;;;5112096;28;20502;-82
2022/01/15 12:26:25;;;;;;;;;;;;;;;;;;5112063;28;19904;-82
2022/01/15 12:28:51;;;;;;;13.00;10.40;;;;;;;;;;5093436;28;19912;-82
2022/01/15 12:31:17;;;;;;;13.00;10.00;;;;;;;;;;5112053;28;20462;-82
2022/01/15 12:33:43;;;;;;;13.43;10.60;;;;;;;;;;5111392;28;20102;-82
2022/01/15 12:36:09;;;;;;;12.52;10.68;;;;;;;;;;5111502;28;20024;-82
2022/01/15 12:38:35;;;;;;;12.82;10.48;;;;;;;;;;5111351;28;20076;-83
2022/01/15 12:41:04;;;;;;;14.40;10.25;;;;;;;;;;5111460;28;20039;-82
2022/01/15 12:43:37;;;;;;;14.88;10.32;;;;;;;;;;5111262;28;20364;-82
2022/01/15 12:46:07;;;;;;;16.23;11.15;;;;;;;;;;5111665;28;20041;-82
2022/01/15 12:48:34;;;;;;;14.48;11.18;;;;;;;;;;5111317;28;20016;-82
2022/01/15 12:51:04;;;;;;;15.45;11.13;;;;;;;;;;5111548;28;20031;-82
2022/01/15 12:53:32;;;;;;;13.57;10.55;;;;;;;;;;5111324;28;20027;-82
2022/01/15 12:55:59;;;;;;;14.00;10.82;;;;;;;;;;5111049;28;20015;-82
2022/01/15 12:58:26;;;;;;;17.20;11.70;;;;;;;;;;5111340;28;20028;-82
2022/01/15 13:00:53;;;;;;;19.58;16.17;;;;;;;;;;5110846;28;20039;-82
2022/01/15 13:03:24;;;;;;;21.77;16.17;;;;;;;;;;5110449;28;20033;-81
2022/01/15 13:05:51;;;;;;;18.58;15.45;;;;;;;;;;5109571;28;20023;-81
2022/01/15 13:08:18;;;;;;;18.67;14.85;;;;;;;;;;5109910;28;20020;-81
2022/01/15 13:10:50;;;;;;;17.55;14.90;;;;;;;;;;5110030;28;20023;-80
2022/01/15 13:13:32;;;;;;;24.15;14.65;;;;;;;;;;5095247;28;20020;-81
2022/01/15 13:16:03;;;;;;;18.60;14.63;;;;;;;;;;5111029;28;21645;-81
2022/01/15 13:18:30;;;;;;;17.83;14.40;;;;;;;;;;5111047;28;20020;-80
2022/01/15 13:20:56;;;;;;;20.52;13.98;;;;;;;;;;5110930;28;20065;-83
2022/01/15 13:23:25;;;;;;;20.75;15.18;;;;;;;;;;5111011;28;20023;-83
2022/01/15 13:25:51;;;;;;;16.92;13.98;;;;;;;;;;5111038;28;20069;-82
2022/01/15 13:28:17;;;;;;;16.05;12.88;;;;;;;;;;5112052;28;20028;-82
2022/01/15 13:30:47;;;;;;;31.17;14.20;;;;;;;;;;5114494;28;20020;-82
2022/01/15 13:33:13;;;;;;;19.35;13.57;;;;;;;;;;5113331;28;20019;-81
2022/01/15 13:35:41;;;;;;;17.77;13.73;;;;;;;;;;5112851;28;20424;-80
2022/01/15 13:38:08;;;;;;;17.77;13.85;;;;;;;;;;5113233;28;20031;-80
2022/01/15 13:40:36;;;;;;;18.65;13.05;;;;;;;;;;5112825;28;20620;-79
2022/01/15 13:43:03;;;;;;;16.02;12.88;;;;;;;;;;5113112;28;20524;-81
2022/01/15 13:45:32;;;;;;;19.60;15.60;;;;;;;;;;5112227;28;20027;-82
2022/01/15 13:48:19;;;;;;;19.88;15.98;;;;;;;;;;5114748;28;20032;-80
2022/01/15 13:53:40;;;;;;;21.08;17.20;;;;;;;;;;5111915;28;20061;-81
2022/01/15 13:56:13;;;;;;;21.52;16.52;;;;;;;;;;5110783;28;20026;-81
2022/01/15 13:58:40;;;;;;;20.25;16.13;;;;;;;;;;5112972;28;20503;-81
2022/01/15 14:01:15;;;;;;;23.27;17.08;;;;;;;;;;5112956;28;20380;-80
2022/01/15 14:03:42;;;;;;;20.80;17.25;;;;;;;;;;5112985;28;20091;-81
2022/01/15 14:06:08;;;;;;;25.33;18.20;;;;;;;;;;5113093;28;20102;-81
2022/01/15 14:08:34;;;;;;;24.98;19.73;;;;;;;;;;5113979;28;20047;-83
2022/01/15 14:11:00;;;;;;;22.02;18.33;;;;;;;;;;5114130;28;20051;-83
2022/01/15 14:13:29;;;;;;;23.55;18.27;;;;;;;;;;5095570;28;20523;-83
2022/01/15 14:15:55;;;;;;;25.77;18.98;;;;;;;;;;5112396;28;20028;-81
2022/01/15 14:18:30;;;;;;;26.98;19.48;;;;;;;;;;5112188;28;20032;-81
2022/01/15 14:23:29;;;;;;;25.45;18.23;;;;;;;;;;5113460;28;20050;-80
2022/01/15 14:25:56;;;;;;;25.50;18.40;;;;;;;;;;5113340;28;20073;-80
2022/01/15 14:28:25;;;;;;;24.30;18.45;;;;;;;;;;5113562;28;20016;-81
2022/01/15 14:30:53;;;;;;;20.98;16.33;;;;;;;;;;5113908;28;20430;-82
2022/01/15 14:33:20;;;;;;;23.67;16.75;;;;;;;;;;5113367;28;20019;-81
2022/01/15 14:35:46;;;;;;;21.42;16.20;;;;;;;;;;5114159;28;20028;-81
2022/01/15 14:38:12;;;;;;;21.70;17.23;;;;;;;;;;5113843;28;20027;-80
2022/01/15 14:40:39;;;;;;;20.45;15.82;;;;;;;;;;5113249;28;20035;-81
2022/01/15 14:43:05;;;;;;;19.60;14.95;;;;;;;;;;5113787;28;20098;-81
2022/01/15 14:45:31;;;;;;;20.83;15.68;;;;;;;;;;5112201;28;20061;-80
2022/01/15 14:47:57;;;;;;;20.33;15.82;;;;;;;;;;5112544;28;20535;-82
2022/01/15 14:50:23;;;;;;;20.55;15.68;;;;;;;;;;5112168;28;20437;-80
2022/01/15 14:52:49;;;;;;;22.58;15.73;;;;;;;;;;5112606;28;20490;-80
2022/01/15 14:55:15;;;;;;;22.75;15.18;;;;;;;;;;5112218;28;20031;-81